Aviation Digital Data Service (ADDS)

Output produced by METARs form (0214 UTC 02 August 2015)
found at http://www.aviationweather.gov/adds/metars/
 
KUNV 020053Z 00000KT 10SM SCT100 19/17 A2992
KUNV 012353Z 00000KT 10SM SCT080 OVC110 21/17 A2992
KUNV 012253Z 00000KT 10SM BKN090 21/16 A2990
KUNV 012153Z 25007G14KT 10SM BKN065 OVC085 22/14 A2990
KUNV 012053Z 25007KT 10SM SCT060 SCT110 26/15 A2989
KUNV 011953Z 26007KT 10SM SCT065 27/14 A2990
KUNV 011853Z 26007KT 10SM SCT100 26/14 A2990
KUNV 011753Z 30006KT 10SM SCT050 BKN100 24/13 A2992
KUNV 011653Z 25007KT 10SM SCT050 BKN090 24/14 A2992
KUNV 011553Z 30004KT 10SM SCT040 BKN060 24/15 A2992
KUNV 011453Z 28010KT 10SM SCT040 24/15 A2991
KUNV 011353Z 28010KT 10SM SCT040 23/16 A2991
KUNV 011253Z 28010KT 10SM SKC 22/16 A2991
KUNV 011153Z 24006KT 10SM SCT080 19/16 A2989
KUNV 011053Z 24006KT 10SM SCT080 18/15 A2988
KUNV 010953Z 23005KT 10SM SCT080 18/15 A2987
KUNV 010935Z AUTO 24007KT 10SM SCT090 19/15 A2987 RMK AO2 T01930152
KUNV 010915Z AUTO 25007KT 10SM BKN090 20/15 A2987 RMK AO2 T02010154
KUNV 010855Z AUTO 24008KT 10SM SCT075 SCT090 SCT100 20/15 A2987 RMK AO2 T02000153
KUNV 010835Z AUTO 24008KT 10SM SCT090 20/15 A2987 RMK AO2 T01960153
KUNV 010815Z AUTO 26007KT 10SM CLR 20/15 A2986 RMK AO2 T02010153
KUNV 010755Z AUTO 25007KT 10SM SCT070 SCT110 19/16 A2987 RMK AO2 T01900156
KUNV 010735Z AUTO 23005KT 10SM OVC110 19/16 A2987 RMK AO2 T01870161
KUNV 010715Z AUTO 24006KT 10SM SCT060 OVC100 20/16 A2987 RMK AO2 T01970162
KUNV 010655Z AUTO 25007KT 10SM BKN090 BKN110 20/16 A2987 RMK AO2 T02000158
KUNV 010635Z AUTO 25005KT 10SM BKN100 BKN120 20/16 A2988 RMK AO2 T01970155
KUNV 010615Z AUTO 23004KT 10SM BKN100 OVC120 19/16 A2987 RMK AO2 T01860155
KUNV 010555Z AUTO 22004KT 10SM BKN120 19/15 A2988 RMK AO2 T01870153 10233 20181
KUNV 010535Z AUTO 24004KT 10SM SCT120 19/15 A2988 RMK AO2 T01850153
KUNV 010515Z AUTO 24005KT 10SM SCT110 19/15 A2988 RMK AO2 T01880151
KUNV 010455Z AUTO 21003KT 10SM SCT110 19/15 A2988 RMK AO2 LTG DSNT E T01900152
KUNV 010435Z AUTO 21004KT 10SM CLR 20/15 A2989 RMK AO2 T01950153
KUNV 010415Z AUTO 21004KT 10SM CLR 19/15 A2989 RMK AO2 T01940152
KUNV 010355Z AUTO 23003KT 10SM SCT070 20/15 A2989 RMK AO2 T01950153 402830157
KUNV 010335Z AUTO 24005KT 10SM SCT100 19/16 A2989 RMK AO2 T01940158
KUNV 010315Z AUTO 25007KT 10SM CLR 22/16 A2990 RMK AO2 T02150155
KUNV 010255Z AUTO 26006KT 10SM CLR 22/16 A2990 RMK AO2 T02170156
KUNV 010235Z AUTO 26005KT 10SM CLR 22/16 A2990 RMK AO2 T02170159
KUNV 010215Z AUTO 24006KT 10SM SCT065 SCT075 SCT100 22/16 A2990 RMK AO2 T02150160
KUNV 010053Z 23004KT 10SM SKC 22/16 A2987
KUNV 312353Z 24007KT 10SM SKC 24/17 A2987
KUNV 312253Z 25008KT 10SM SKC 25/16 A2987
KUNV 312153Z 26011KT 10SM SKC 27/16 A2989
KUNV 312053Z 26009KT 10SM SCT110 27/16 A2990
KUNV 311953Z 26009KT 10SM SCT100 27/16 A2991
KUNV 311853Z 26009KT 10SM SCT050 27/16 A2992
KUNV 311753Z 26009KT 10SM SCT050 28/15 A2994
KUNV 311653Z 28006KT 10SM SCT045 27/16 A2996
KUNV 311553Z 29009KT 10SM SCT040 26/16 A2997
KUNV 311453Z 00000KT 10SM FEW035 25/17 A2998